Time;durP1;ratioP1;P1;durP2;ratioP2;P2;SDS_P1;SDS_P2;PMS_P1;PMS_P2;Temp;Humidity;BMP_temperature;BMP_pressure;BME280_temperature;BME280_humidity;BME280_pressure;Samples;Min_cycle;Max_cycle;Signal;HPM_P1;HPM_P2
2023/08/17 00:00:13;;;;;;;3.00;1.90;;;;;;;21.11;100.00;98703.72;15291621;19;20010;-77
2023/08/17 00:05:41;;;;;;;2.53;1.80;;;;;;;;;;15285825;19;20605;-76
2023/08/17 00:11:05;;;;;;;5.13;2.22;;;;;;;21.07;100.00;98692.38;15290168;19;20018;-76
2023/08/17 00:16:29;;;;;;;3.70;2.17;;;;;;;21.06;100.00;98679.72;15284738;19;20026;-76
2023/08/17 00:21:57;;;;;;;3.00;1.98;;;;;;;21.06;100.00;98679.72;15301090;19;20035;-77
2023/08/17 00:27:22;;;;;;;2.95;2.00;;;;;;;21.06;100.00;98658.66;15313725;19;20034;-76
2023/08/17 00:32:47;;;;;;;3.78;2.40;;;;;;;21.08;100.00;98666.66;15310740;19;20025;-76
2023/08/17 00:38:15;;;;;;;2.55;2.28;;;;;;;21.11;100.00;98668.94;15303298;19;20018;-76
2023/08/17 00:43:39;;;;;;;3.33;2.10;;;;;;;20.84;100.00;98704.75;15304375;19;20018;-77
2023/08/17 00:49:05;;;;;;;4.10;2.50;;;;;;;20.36;100.00;98806.47;15302263;19;20510;-76
2023/08/17 00:54:34;;;;;;;3.42;2.80;;;;;;;20.38;100.00;98810.66;15315220;19;20058;-75
2023/08/17 00:59:59;;;;;;;5.00;2.80;;;;;;;20.36;100.00;98845.59;15321008;19;20006;-75
2023/08/17 01:05:26;;;;;;;1.83;1.40;;;;;;;20.09;100.00;98806.53;15309607;19;20636;-76
2023/08/17 01:11:00;;;;;;;1.48;0.80;;;;;;;19.83;100.00;98775.41;15303134;19;20035;-78
2023/08/17 01:16:30;;;;;;;1.52;0.60;;;;;;;19.65;100.00;98754.19;15299489;19;20006;-78
2023/08/17 01:22:00;;;;;;;0.88;0.50;;;;;;;19.44;100.00;98744.38;15297811;19;20020;-73
2023/08/17 01:27:27;;;;;;;1.70;0.70;;;;;;;19.27;100.00;98741.22;15313719;19;20018;-81
2023/08/17 01:33:00;;;;;;;2.33;0.77;;;;;;;19.19;100.00;98750.44;15315235;19;20687;-80
2023/08/17 01:38:32;;;;;;;0.73;0.50;;;;;;;19.08;100.00;98766.41;15310459;19;20030;-79
2023/08/17 01:44:02;;;;;;;1.20;0.70;;;;;;;18.98;100.00;98781.50;15309390;19;20018;-80
2023/08/17 01:49:26;;;;;;;1.15;0.60;;;;;;;18.81;100.00;98800.13;15318903;19;20058;-83
2023/08/17 01:54:50;;;;;;;1.13;0.70;;;;;;;18.81;100.00;98794.66;15308518;19;20042;-82
2023/08/17 02:00:20;;;;;;;1.15;0.50;;;;;;;18.71;100.00;98785.00;15308807;19;20032;-81
2023/08/17 02:05:47;;;;;;;1.13;0.60;;;;;;;18.68;100.00;98758.09;15303455;19;20051;-81
2023/08/17 02:11:12;;;;;;;1.73;0.73;;;;;;;18.52;100.00;98824.78;15321011;19;20018;-80
2023/08/17 02:16:44;;;;;;;4.85;0.90;;;;;;;18.40;100.00;98881.84;15314534;19;20022;-79
2023/08/17 02:22:12;;;;;;;1.83;0.80;;;;;;;18.36;100.00;98945.16;15323246;19;20018;-82
2023/08/17 02:27:38;;;;;;;1.25;0.80;;;;;;;18.36;100.00;98946.00;15320603;19;20395;-80
2023/08/17 02:33:06;;;;;;;3.38;0.93;;;;;;;18.32;100.00;98934.66;15329934;19;20041;-79
2023/08/17 02:38:39;;;;;;;2.35;1.00;;;;;;;18.28;100.00;98959.81;15307366;19;20021;-81
2023/08/17 02:44:06;;;;;;;5.00;1.10;;;;;;;18.16;100.00;99044.88;15354723;19;20010;-81
2023/08/17 02:49:34;;;;;;;8.35;1.85;;;;;;;17.91;100.00;99117.16;15316581;19;20006;-82
2023/08/17 02:54:58;;;;;;;21.98;2.05;;;;;;;17.87;100.00;99101.16;15290652;19;20011;-77
2023/08/17 03:00:24;;;;;;;8.95;2.40;;;;;;;17.86;100.00;99110.38;15301410;19;20035;-83
2023/08/17 03:05:52;;;;;;;10.55;2.20;;;;;;;17.92;100.00;99136.03;15301285;19;20018;-82
2023/08/17 03:11:18;;;;;;;10.02;2.33;;;;;;;17.90;100.00;99118.19;15318930;19;20050;-82
2023/08/17 03:16:42;;;;;;;5.38;2.30;;;;;;;17.93;100.00;99115.09;15318185;19;20019;-84
2023/08/17 03:22:10;;;;;;;5.35;1.90;;;;;;;17.91;100.00;99095.34;15323628;19;20022;-83
2023/08/17 03:27:34;;;;;;;6.25;1.70;;;;;;;17.90;100.00;99090.91;15326877;19;20007;-84
2023/08/17 03:33:00;;;;;;;2.15;1.10;;;;;;;17.91;100.00;99111.69;15326329;19;20118;-83
2023/08/17 03:38:28;;;;;;;1.80;0.95;;;;;;;17.91;100.00;99068.06;15323228;19;20047;-83
2023/08/17 03:43:53;;;;;;;3.38;1.05;;;;;;;17.86;100.00;99044.97;15330852;19;20018;-83
2023/08/17 03:49:17;;;;;;;4.63;0.90;;;;;;;17.87;100.00;99071.19;15319951;19;20010;-83
2023/08/17 03:54:45;;;;;;;3.85;0.90;;;;;;;17.84;100.00;99062.56;15322377;19;20082;-84
2023/08/17 04:00:11;;;;;;;1.27;0.70;;;;;;;17.81;100.00;99057.47;15316754;19;20015;-82
2023/08/17 04:05:41;;;;;;;2.75;1.02;;;;;;;17.81;100.00;99080.16;15318432;19;20027;-82
2023/08/17 04:11:08;;;;;;;3.00;1.00;;;;;;;17.83;100.00;99091.69;15326510;19;20018;-82
2023/08/17 04:16:35;;;;;;;1.73;0.90;;;;;;;17.84;100.00;99089.81;15314087;19;20019;-81
2023/08/17 04:22:01;;;;;;;3.38;1.10;;;;;;;17.84;100.00;99074.28;15322418;19;20010;-82
2023/08/17 04:27:28;;;;;;;3.88;1.00;;;;;;;17.80;100.00;99033.97;15328249;19;20050;-82
2023/08/17 04:32:53;;;;;;;1.73;0.90;;;;;;;17.76;100.00;99011.72;15304805;19;20011;-82
2023/08/17 04:38:18;;;;;;;2.75;0.82;;;;;;;17.71;100.00;99004.13;15333520;19;20018;-82
2023/08/17 04:43:46;;;;;;;1.65;0.90;;;;;;;17.69;100.00;98980.84;15329616;19;20024;-83
2023/08/17 04:49:12;;;;;;;1.70;1.02;;;;;;;17.68;100.00;99011.84;15330375;19;20022;-83
2023/08/17 04:54:43;;;;;;;3.50;1.05;;;;;;;17.69;100.00;98989.03;15331395;19;20011;-82
2023/08/17 05:00:13;;;;;;;3.10;1.02;;;;;;;17.69;100.00;99019.00;15306686;19;20028;-83
2023/08/17 05:05:39;;;;;;;;;;;;;;;17.72;100.00;99018.59;15311621;19;20037;-83
2023/08/17 05:11:03;;;;;;;2.45;1.00;;;;;;;17.72;100.00;99018.59;15328356;19;19925;-83
2023/08/17 05:16:31;;;;;;;1.33;0.88;;;;;;;17.75;100.00;99040.00;15313915;19;20032;-83
2023/08/17 05:21:55;;;;;;;1.85;1.00;;;;;;;17.78;100.00;99061.44;15317962;19;20022;-83
2023/08/17 05:27:20;;;;;;;0.70;0.70;;;;;;;17.80;100.00;99064.81;15317676;19;20018;-83
2023/08/17 05:32:47;;;;;;;1.67;1.02;;;;;;;17.87;100.00;99065.72;15322862;19;20010;-82
2023/08/17 05:38:13;;;;;;;2.05;1.02;;;;;;;17.89;100.00;99095.50;15324929;19;20050;-82
2023/08/17 05:43:38;;;;;;;3.92;1.33;;;;;;;17.94;100.00;99051.31;15328601;19;20014;-82
2023/08/17 05:49:05;;;;;;;4.28;1.30;;;;;;;17.93;100.00;99012.31;15325802;19;20018;-82
2023/08/17 05:54:29;;;;;;;2.58;1.20;;;;;;;17.96;100.00;99049.25;15344444;19;20021;-83
2023/08/17 05:59:55;;;;;;;3.60;1.08;;;;;;;17.85;100.00;99070.53;15326942;19;20014;-83
2023/08/17 06:05:28;;;;;;;2.25;1.40;;;;;;;17.88;100.00;99072.00;15319304;19;20014;-82
2023/08/17 06:10:54;;;;;;;2.17;1.20;;;;;;;17.91;100.00;99051.72;15321311;19;20026;-83
2023/08/17 06:16:19;;;;;;;1.63;1.25;;;;;;;17.96;100.00;99043.78;15313985;19;20018;-83
2023/08/17 06:21:46;;;;;;;1.50;1.40;;;;;;;18.01;100.00;99046.81;15321455;19;20100;-84
2023/08/17 06:27:11;;;;;;;2.53;1.45;;;;;;;18.07;100.00;99034.28;15321257;19;20090;-83
2023/08/17 06:32:36;;;;;;;4.43;1.70;;;;;;;18.16;100.00;99049.47;15366436;19;20018;-83
2023/08/17 06:38:03;;;;;;;6.05;1.70;;;;;;;18.32;100.00;99068.31;15319398;19;20564;-82
2023/08/17 06:43:28;;;;;;;3.05;1.20;;;;;;;18.51;100.00;99082.31;15314614;19;20014;-82
2023/08/17 06:48:52;;;;;;;2.67;1.20;;;;;;;18.75;100.00;99091.13;15299795;19;20015;-82
2023/08/17 06:54:20;;;;;;;1.77;1.30;;;;;;;18.91;100.00;99090.84;15307369;19;20011;-83
2023/08/17 06:59:45;;;;;;;1.50;1.40;;;;;;;19.09;100.00;99086.75;15298918;19;20034;-82
2023/08/17 07:05:10;;;;;;;2.30;1.70;;;;;;;19.20;100.00;99083.47;15297425;19;20015;-82
2023/08/17 07:10:41;;;;;;;2.38;1.90;;;;;;;19.35;100.00;99077.88;15343192;19;20023;-82
2023/08/17 07:15:57;;;;;;;2.35;1.90;;;;;;;19.43;100.00;99081.50;15349891;19;20007;-82
2023/08/17 07:21:22;;;;;;;2.47;1.80;;;;;;;19.50;100.00;99075.03;15337149;19;20018;-82
2023/08/17 07:26:49;;;;;;;5.47;1.40;;;;;;;19.57;100.00;99077.78;15320113;19;20022;-82
2023/08/17 07:32:14;;;;;;;2.05;1.10;;;;;;;19.65;100.00;99085.78;15318055;19;20041;-82
2023/08/17 07:37:45;;;;;;;2.45;1.17;;;;;;;19.80;100.00;99090.28;15317548;19;20018;-82
2023/08/17 07:43:27;;;;;;;3.30;1.20;;;;;;;19.99;100.00;99103.19;15320191;19;20074;-81
2023/08/17 07:48:52;;;;;;;2.58;1.08;;;;;;;20.22;100.00;99106.63;15316490;19;20024;-83
2023/08/17 07:54:17;;;;;;;1.95;1.00;;;;;;;20.43;100.00;99106.44;15313315;19;20023;-82
2023/08/17 07:59:44;;;;;;;1.27;0.85;;;;;;;20.69;100.00;99114.88;15320159;19;20011;-82
2023/08/17 08:05:09;;;;;;;1.42;0.85;;;;;;;20.93;100.00;99086.03;15325275;19;20014;-82
2023/08/17 08:10:34;;;;;;;1.70;0.82;;;;;;;21.17;100.00;99043.41;15327207;19;20015;-82
2023/08/17 08:16:01;;;;;;;1.02;0.80;;;;;;;21.33;100.00;98981.78;15311520;19;20007;-82
2023/08/17 08:21:27;;;;;;;1.17;0.98;;;;;;;21.48;100.00;98923.09;15287818;19;20015;-83
2023/08/17 08:26:52;;;;;;;0.82;0.82;;;;;;;21.57;100.00;98893.53;15343905;19;20015;-82
2023/08/17 08:32:20;;;;;;;1.27;0.93;;;;;;;21.71;100.00;98889.66;15340906;19;20377;-82
2023/08/17 08:37:46;;;;;;;3.03;0.95;;;;;;;21.85;100.00;98880.25;15323029;19;20558;-82
2023/08/17 08:43:12;;;;;;;1.40;1.02;;;;;;;21.98;100.00;98859.25;15329499;19;20025;-82
2023/08/17 08:48:42;;;;;;;2.85;1.00;;;;;;;22.07;100.00;98819.50;15336292;19;20014;-82
2023/08/17 08:54:10;;;;;;;1.17;1.08;;;;;;;22.22;100.00;98797.19;15329742;19;20011;-82
2023/08/17 09:00:02;;;;;;;1.20;1.05;;;;;;;22.31;100.00;98790.31;15333467;19;20015;-82
2023/08/17 09:05:38;;;;;;;1.83;1.00;;;;;;;22.46;100.00;98762.50;15336497;19;20015;-82
2023/08/17 09:11:13;;;;;;;1.25;1.02;;;;;;;22.58;100.00;98765.28;15319927;19;20041;-56
2023/08/17 09:16:38;;;;;;;1.10;0.95;;;;;;;22.71;100.00;98746.97;15290690;19;20010;-59
2023/08/17 09:22:05;;;;;;;1.25;1.00;;;;;;;22.85;100.00;98750.38;15288035;19;20035;-60
2023/08/17 09:27:29;;;;;;;2.33;1.10;;;;;;;22.99;100.00;98740.03;15290873;19;20021;-61
2023/08/17 09:32:57;;;;;;;1.95;1.10;;;;;;;23.16;100.00;98719.03;15294431;19;20022;-56
2023/08/17 09:38:24;;;;;;;1.80;1.00;;;;;;;23.28;100.00;98713.59;15291668;19;20054;-57
2023/08/17 09:43:50;;;;;;;2.03;1.17;;;;;;;23.49;100.00;98714.06;15295811;19;20039;-55
2023/08/17 09:49:15;;;;;;;3.72;1.30;;;;;;;23.59;100.00;98714.31;15290084;19;20015;-56
2023/08/17 09:54:43;;;;;;;2.88;1.10;;;;;;;23.77;100.00;98690.50;15296144;19;20535;-56
2023/08/17 10:00:09;;;;;;;1.83;1.40;;;;;;;23.97;100.00;98684.66;15293787;19;20359;-53
2023/08/17 10:05:37;;;;;;;2.17;1.20;;;;;;;24.12;100.00;98670.38;15295946;19;20025;-56
2023/08/17 10:11:07;;;;;;;3.33;1.50;;;;;;;24.16;100.00;98655.03;15295641;19;20618;-57
2023/08/17 10:16:33;;;;;;;1.70;1.45;;;;;;;24.30;100.00;98645.38;15297071;19;20098;-59
2023/08/17 10:22:07;;;;;;;3.35;1.40;;;;;;;24.36;100.00;98638.06;15284239;19;20023;-59
2023/08/17 10:27:39;;;;;;;3.30;1.38;;;;;;;24.48;100.00;98613.22;15286989;19;20011;-57
2023/08/17 10:33:04;;;;;;;2.05;1.30;;;;;;;24.57;100.00;98606.22;15291824;19;20026;-57
2023/08/17 10:38:30;;;;;;;5.95;1.58;;;;;;;24.71;100.00;98604.00;15287876;19;20024;-55
2023/08/17 10:44:02;;;;;;;1.60;1.20;;;;;;;24.82;100.00;98606.94;15292734;19;20101;-59
2023/08/17 10:49:36;;;;;;;2.00;1.23;;;;;;;24.99;100.00;98601.44;15291274;19;20014;-61
2023/08/17 10:55:05;;;;;;;1.33;1.20;;;;;;;25.12;100.00;98583.72;15286512;19;20555;-59
2023/08/17 11:00:33;;;;;;;3.60;1.60;;;;;;;25.32;100.00;98595.03;15289150;19;20014;-56
2023/08/17 11:06:00;;;;;;;1.20;1.10;;;;;;;25.50;100.00;98580.16;15291977;19;20102;-53
2023/08/17 11:11:24;;;;;;;3.08;1.40;;;;;;;25.79;100.00;98571.69;15291886;19;20021;-57
2023/08/17 11:16:52;;;;;;;1.50;1.40;;;;;;;25.95;100.00;98572.69;15284215;19;20078;-56
2023/08/17 11:22:16;;;;;;;1.65;1.20;;;;;;;26.19;100.00;98569.66;15281232;19;20021;-55
2023/08/17 11:27:43;;;;;;;1.77;1.25;;;;;;;26.23;100.00;98542.38;15282701;19;20020;-58
2023/08/17 11:33:10;;;;;;;3.22;1.33;;;;;;;26.38;100.00;98555.47;15287115;19;20090;-56
2023/08/17 11:38:35;;;;;;;3.10;1.30;;;;;;;26.52;100.00;98551.19;15284073;19;20035;-54
2023/08/17 11:44:01;;;;;;;1.70;1.20;;;;;;;26.69;100.00;98536.41;15289113;19;20477;-54
2023/08/17 11:49:28;;;;;;;3.75;1.20;;;;;;;26.81;100.00;98530.72;15284453;19;20816;-56
2023/08/17 11:54:55;;;;;;;2.43;1.17;;;;;;;26.89;100.00;98533.81;15289752;19;20054;-55
2023/08/17 12:00:22;;;;;;;4.85;1.20;;;;;;;26.95;100.00;98525.56;14770044;19;10000033;-58
2023/08/17 12:05:49;;;;;;;2.33;1.20;;;;;;;26.97;100.00;98513.16;15282543;19;20078;-59
2023/08/17 12:11:14;;;;;;;1.92;1.02;;;;;;;26.90;100.00;98509.78;15287842;19;20046;-56
2023/08/17 12:16:38;;;;;;;3.58;1.00;;;;;;;27.03;100.00;98508.47;15289928;19;20020;-57
2023/08/17 12:22:07;;;;;;;2.75;1.20;;;;;;;27.07;100.00;98507.69;15289431;19;20015;-54
2023/08/17 12:27:32;;;;;;;5.75;1.33;;;;;;;27.01;100.00;98513.44;15279942;19;20066;-59
2023/08/17 12:32:57;;;;;;;2.88;1.10;;;;;;;27.15;100.00;98502.72;15281894;19;20018;-56
2023/08/17 12:38:24;;;;;;;2.20;1.27;;;;;;;27.24;100.00;98503.88;15284860;19;20022;-59
2023/08/17 12:43:49;;;;;;;1.75;1.10;;;;;;;27.27;100.00;98489.50;15287446;19;20014;-60
2023/08/17 12:49:13;;;;;;;3.83;1.10;;;;;;;27.47;100.00;98482.41;15280728;19;20025;-55
2023/08/17 12:54:40;;;;;;;1.42;1.10;;;;;;;27.47;100.00;98483.28;15285786;19;20018;-58
2023/08/17 13:00:17;;;;;;;1.60;1.10;;;;;;;27.34;100.00;98489.28;15283821;19;20017;-59
2023/08/17 13:05:42;;;;;;;4.32;1.30;;;;;;;27.11;100.00;98485.03;15286179;19;20042;-58
2023/08/17 13:11:16;;;;;;;1.42;1.20;;;;;;;26.87;100.00;98490.97;15282232;19;20496;-57
2023/08/17 13:16:41;;;;;;;3.55;1.30;;;;;;;26.77;100.00;98492.53;15286349;19;20082;-58
2023/08/17 13:22:05;;;;;;;2.22;1.15;;;;;;;26.92;100.00;98478.00;15284711;19;20020;-58
2023/08/17 13:27:33;;;;;;;1.45;1.10;;;;;;;27.18;100.00;98460.72;15280419;19;20029;-59
2023/08/17 13:32:57;;;;;;;2.78;1.00;;;;;;;27.25;100.00;98454.94;15296007;19;20028;-58
2023/08/17 13:38:22;;;;;;;1.83;1.27;;;;;;;27.26;100.00;98473.19;15290677;19;20021;-56
2023/08/17 13:43:49;;;;;;;1.15;1.05;;;;;;;27.03;100.00;98472.53;15301134;19;20462;-58
2023/08/17 13:49:17;;;;;;;2.07;1.03;;;;;;;26.84;100.00;98481.25;15290631;19;20017;-59
2023/08/17 13:54:41;;;;;;;2.20;1.10;;;;;;;26.82;100.00;98455.81;15296706;19;20020;-59
2023/08/17 14:00:10;;;;;;;2.13;1.27;;;;;;;26.67;100.00;98459.28;15295026;19;20102;-54
2023/08/17 14:05:35;;;;;;;2.60;1.30;;;;;;;26.50;100.00;98464.97;15297936;19;20022;-59
2023/08/17 14:11:06;;;;;;;1.80;1.40;;;;;;;26.34;100.00;98483.38;15294397;19;20029;-59
2023/08/17 14:16:35;;;;;;;3.10;1.50;;;;;;;26.17;100.00;98482.69;15297904;19;20091;-59
2023/08/17 14:22:00;;;;;;;3.05;1.55;;;;;;;25.98;100.00;98502.34;15291562;19;20014;-58
2023/08/17 14:27:26;;;;;;;3.25;1.63;;;;;;;25.85;100.00;98493.38;15289488;19;20497;-56
2023/08/17 14:32:53;;;;;;;3.50;1.67;;;;;;;25.65;100.00;98515.22;15284983;19;20015;-59
2023/08/17 14:38:19;;;;;;;3.85;1.70;;;;;;;25.53;100.00;98507.06;15277753;19;20074;-48
2023/08/17 14:43:48;;;;;;;2.03;1.50;;;;;;;25.36;100.00;98496.06;15284106;19;20017;-51
2023/08/17 14:49:20;;;;;;;2.38;1.60;;;;;;;25.24;100.00;98499.78;15288973;19;20025;-49
2023/08/17 14:54:45;;;;;;;3.22;1.98;;;;;;;25.15;100.00;98479.28;15293001;19;20014;-50
2023/08/17 15:00:12;;;;;;;3.40;1.45;;;;;;;25.00;100.00;98503.88;15290010;19;20017;-52
2023/08/17 15:05:47;;;;;;;4.55;1.52;;;;;;;24.84;100.00;98553.25;15273981;19;20101;-53
2023/08/17 15:11:12;;;;;;;4.25;1.50;;;;;;;24.68;100.00;98526.50;15288878;19;20081;-52
2023/08/17 15:16:38;;;;;;;1.52;1.40;;;;;;;24.41;100.00;98550.06;15287022;19;20373;-54
2023/08/17 15:22:05;;;;;;;3.58;1.67;;;;;;;24.14;100.00;98547.91;15285502;19;20029;-51
2023/08/17 15:27:32;;;;;;;1.95;1.30;;;;;;;23.87;100.00;98564.16;15287611;19;20018;-54
2023/08/17 15:33:03;;;;;;;1.80;1.13;;;;;;;23.74;100.00;98567.19;15276246;19;20033;-52
2023/08/17 15:38:30;;;;;;;;;;;;;;;23.59;100.00;98541.03;15287173;19;20526;-53
2023/08/17 15:43:54;;;;;;;12.55;2.08;;;;;;;23.43;100.00;98552.81;15280744;19;19942;-51
2023/08/17 15:49:19;;;;;;;4.75;1.85;;;;;;;22.81;100.00;98584.34;15280348;19;20015;-52
2023/08/17 15:54:46;;;;;;;3.42;1.48;;;;;;;22.36;100.00;98589.25;15282136;19;20019;-53
2023/08/17 16:00:12;;;;;;;1.40;1.13;;;;;;;22.16;100.00;98551.97;15283599;19;20032;-54
2023/08/17 16:05:37;;;;;;;1.85;1.10;;;;;;;21.84;100.00;98552.19;15282613;19;20673;-55
2023/08/17 16:11:04;;;;;;;2.15;1.40;;;;;;;21.55;100.00;98609.50;15283934;19;20630;-50
2023/08/17 16:16:29;;;;;;;3.03;1.60;;;;;;;21.45;100.00;98654.91;15282181;19;20011;-54
2023/08/17 16:21:54;;;;;;;2.20;1.30;;;;;;;21.31;100.00;98640.53;15276454;19;20070;-54
2023/08/17 16:27:21;;;;;;;2.28;1.33;;;;;;;21.23;100.00;98630.69;15286354;19;20015;-55
2023/08/17 16:32:46;;;;;;;1.63;1.52;;;;;;;21.08;100.00;98666.66;15281242;19;20014;-54
2023/08/17 16:38:10;;;;;;;2.75;1.50;;;;;;;21.06;100.00;98685.22;15285003;19;20043;-47
2023/08/17 16:43:38;;;;;;;2.10;1.40;;;;;;;21.06;100.00;98696.16;15277220;19;20025;-44
2023/08/17 16:49:02;;;;;;;16.58;4.28;;;;;;;20.99;100.00;98698.13;15284140;19;20033;-45
2023/08/17 16:54:27;;;;;;;2.08;1.45;;;;;;;20.83;100.00;98694.88;15281493;19;20025;-47
2023/08/17 16:59:54;;;;;;;2.78;1.70;;;;;;;20.84;100.00;98704.75;15280135;19;20010;-47
2023/08/17 17:05:28;;;;;;;2.42;1.50;;;;;;;20.85;100.00;98722.88;15282757;19;20029;-47
2023/08/17 17:10:53;;;;;;;2.25;1.58;;;;;;;20.90;100.00;98753.16;15290389;19;20018;-44
2023/08/17 17:16:20;;;;;;;3.03;1.50;;;;;;;20.89;100.00;98743.25;15286864;19;20017;-44
2023/08/17 17:21:46;;;;;;;1.70;1.45;;;;;;;20.88;100.00;98735.28;15281038;19;20733;-47
2023/08/17 17:27:11;;;;;;;1.92;1.27;;;;;;;20.89;100.00;98724.09;15291967;19;20357;-46
2023/08/17 17:32:39;;;;;;;2.63;1.55;;;;;;;20.90;100.00;98742.19;15286859;19;20014;-45
2023/08/17 17:38:03;;;;;;;2.95;1.80;;;;;;;20.85;100.00;98769.44;15267224;19;20479;-44
2023/08/17 17:43:28;;;;;;;3.28;1.83;;;;;;;20.64;100.00;98814.34;15284392;19;20015;-49
2023/08/17 17:48:55;;;;;;;3.38;2.38;;;;;;;20.31;100.00;98832.56;15288488;19;20007;-44
2023/08/17 17:54:20;;;;;;;5.07;2.42;;;;;;;20.18;100.00;98843.53;15280066;19;21078;-44
2023/08/17 17:59:45;;;;;;;3.20;2.47;;;;;;;20.14;100.00;98880.59;15284698;19;20434;-46
2023/08/17 18:05:13;;;;;;;3.20;2.10;;;;;;;20.16;100.00;98903.13;15283593;19;20332;-44
2023/08/17 18:10:37;;;;;;;2.20;1.90;;;;;;;20.18;100.00;98892.78;15285915;19;20479;-43
2023/08/17 18:16:02;;;;;;;3.38;1.90;;;;;;;20.25;100.00;98892.78;15283499;19;20042;-44
2023/08/17 18:21:31;;;;;;;3.63;2.08;;;;;;;20.32;100.00;98910.03;15284445;19;20014;-45
2023/08/17 18:26:56;;;;;;;3.47;2.30;;;;;;;20.37;100.00;98895.72;15283443;19;20016;-47
2023/08/17 18:32:21;;;;;;;2.72;2.25;;;;;;;20.38;100.00;98883.72;15285344;19;20015;-44
2023/08/17 18:37:49;;;;;;;4.40;2.20;;;;;;;20.37;100.00;98879.28;15289425;19;20025;-45
2023/08/17 18:43:13;;;;;;;2.90;2.13;;;;;;;20.38;100.00;98878.25;15284555;19;20466;-44
2023/08/17 18:48:38;;;;;;;2.35;2.15;;;;;;;20.38;100.00;98887.28;15288314;19;20027;-44
2023/08/17 18:54:05;;;;;;;2.30;1.83;;;;;;;20.40;100.00;98882.44;15286433;19;20553;-45
2023/08/17 18:59:30;;;;;;;4.00;2.08;;;;;;;20.40;100.00;98884.34;15282662;19;20038;-45
2023/08/17 19:05:02;;;;;;;2.40;1.88;;;;;;;20.38;100.00;98890.03;15284062;19;20489;-44
2023/08/17 19:10:30;;;;;;;5.75;2.30;;;;;;;20.29;100.00;98883.94;15284601;19;20395;-45
2023/08/17 19:15:54;;;;;;;4.22;2.75;;;;;;;20.23;100.00;98903.94;15284331;19;20021;-50
2023/08/17 19:21:19;;;;;;;6.28;3.40;;;;;;;20.12;100.00;98929.22;15284806;19;20015;-45
2023/08/17 19:26:47;;;;;;;4.43;3.40;;;;;;;20.08;100.00;98942.47;15284686;19;20015;-44
2023/08/17 19:32:12;;;;;;;4.68;3.25;;;;;;;20.07;100.00;98940.78;15277934;19;20093;-47
2023/08/17 19:37:36;;;;;;;2.67;2.40;;;;;;;20.07;100.00;98948.13;15289032;19;20020;-46
2023/08/17 19:43:04;;;;;;;5.22;2.67;;;;;;;20.07;100.00;98956.34;15286718;19;20032;-44
2023/08/17 19:48:29;;;;;;;3.55;2.58;;;;;;;20.10;100.00;98959.50;15289822;19;20018;-48
2023/08/17 19:53:54;;;;;;;5.45;2.70;;;;;;;20.07;100.00;98954.47;15289883;19;20066;-46
2023/08/17 19:59:21;;;;;;;3.53;2.60;;;;;;;20.07;100.00;98948.13;15288590;19;20036;-47
2023/08/17 20:04:53;;;;;;;5.32;2.90;;;;;;;20.05;100.00;98942.06;15283625;19;20025;-45
2023/08/17 20:10:18;;;;;;;5.53;3.40;;;;;;;19.99;100.00;98928.16;15286571;19;20557;-47
2023/08/17 20:15:45;;;;;;;4.47;3.25;;;;;;;19.98;100.00;98931.94;15287725;19;20014;-45
2023/08/17 20:21:11;;;;;;;4.43;3.33;;;;;;;19.98;100.00;98929.19;15286908;19;20090;-48
2023/08/17 20:26:35;;;;;;;3.88;3.03;;;;;;;19.97;100.00;98922.03;15291627;19;20006;-44
2023/08/17 20:32:03;;;;;;;3.35;2.97;;;;;;;19.96;100.00;98916.81;15286953;19;20011;-50
2023/08/17 20:37:28;;;;;;;3.97;2.88;;;;;;;19.94;100.00;98919.72;15293106;19;20537;-48
2023/08/17 20:42:53;;;;;;;3.72;3.33;;;;;;;19.92;100.00;98921.84;15300503;19;20029;-47
2023/08/17 20:48:20;;;;;;;3.80;3.20;;;;;;;19.89;100.00;98910.47;15305739;19;20029;-46
2023/08/17 20:53:45;;;;;;;3.72;3.30;;;;;;;19.86;100.00;98914.47;15300324;19;20032;-47
2023/08/17 20:59:09;;;;;;;6.47;3.58;;;;;;;19.84;100.00;98908.34;15301938;19;20210;-46
2023/08/17 21:04:37;;;;;;;4.57;3.60;;;;;;;19.83;100.00;98906.66;15299465;19;20085;-46
2023/08/17 21:10:01;;;;;;;4.22;3.83;;;;;;;19.80;100.00;98905.19;15295405;19;20045;-44
2023/08/17 21:15:26;;;;;;;5.55;3.70;;;;;;;19.77;100.00;98905.59;15298898;19;20070;-45
2023/08/17 21:20:53;;;;;;;4.32;3.47;;;;;;;19.76;100.00;98927.69;15300401;19;20027;-44
2023/08/17 21:26:18;;;;;;;3.92;3.40;;;;;;;19.73;100.00;98941.75;15296295;19;20021;-45
2023/08/17 21:31:46;;;;;;;4.10;3.45;;;;;;;19.71;100.00;98941.97;15299507;19;20026;-44
2023/08/17 21:37:26;;;;;;;4.03;3.30;;;;;;;19.68;100.00;98942.41;15301101;19;20014;-46
2023/08/17 21:42:50;;;;;;;3.78;3.45;;;;;;;19.65;100.00;98943.66;15292567;19;20017;-44
2023/08/17 21:48:15;;;;;;;4.40;3.55;;;;;;;19.63;100.00;98951.22;15299344;19;20018;-44
2023/08/17 21:53:42;;;;;;;5.65;3.70;;;;;;;19.59;100.00;98952.66;15295581;19;20663;-44
2023/08/17 21:59:07;;;;;;;4.57;3.40;;;;;;;19.56;100.00;98964.03;15297913;19;20014;-46
2023/08/17 22:04:32;;;;;;;4.25;3.50;;;;;;;19.54;100.00;98964.22;15295307;19;20024;-45
2023/08/17 22:10:00;;;;;;;4.35;3.95;;;;;;;19.51;100.00;98959.19;15295064;19;20018;-50
2023/08/17 22:15:25;;;;;;;4.50;4.10;;;;;;;19.47;100.00;98965.25;15290319;19;20471;-46
2023/08/17 22:20:50;;;;;;;7.20;5.05;;;;;;;19.39;100.00;98971.78;15293313;19;20027;-45
2023/08/17 22:26:18;;;;;;;7.57;5.20;;;;;;;19.36;100.00;98985.84;15293567;19;20511;-46
2023/08/17 22:31:43;;;;;;;4.72;4.03;;;;;;;19.33;100.00;98958.91;15293329;19;20015;-44
2023/08/17 22:37:07;;;;;;;4.43;3.45;;;;;;;19.31;100.00;98971.94;15297813;19;20025;-47
2023/08/17 22:42:35;;;;;;;4.63;3.60;;;;;;;19.28;100.00;98959.53;15294136;19;20028;-46
2023/08/17 22:47:59;;;;;;;3.65;3.30;;;;;;;19.28;100.00;98953.25;15291283;19;20031;-46
2023/08/17 22:53:24;;;;;;;5.00;4.50;;;;;;;19.26;100.00;98950.69;15293517;19;20014;-46
2023/08/17 22:58:51;;;;;;;5.18;3.92;;;;;;;19.28;100.00;98955.97;15292310;19;20899;-45
2023/08/17 23:04:16;;;;;;;6.78;4.75;;;;;;;19.27;100.00;98946.91;15291396;19;20022;-44
2023/08/17 23:09:45;;;;;;;9.35;6.60;;;;;;;19.26;100.00;98945.22;15292417;19;20013;-45
2023/08/17 23:15:13;;;;;;;8.75;7.85;;;;;;;19.25;100.00;98943.53;15291017;19;20029;-44
2023/08/17 23:20:37;;;;;;;8.27;7.57;;;;;;;19.24;100.00;98930.94;15287806;19;20013;-45
2023/08/17 23:26:16;;;;;;;6.75;6.15;;;;;;;19.22;100.00;98925.69;15359056;19;20065;-45
2023/08/17 23:31:41;;;;;;;7.30;6.70;;;;;;;19.20;100.00;98924.22;15362533;19;20030;-46
2023/08/17 23:37:05;;;;;;;10.07;8.98;;;;;;;19.26;100.00;98939.78;15364367;19;20033;-45
2023/08/17 23:42:33;;;;;;;402.63;24.80;;;;;;;19.19;100.00;98936.19;15358187;19;20086;-46
2023/08/17 23:47:57;;;;;;;234.90;12.90;;;;;;;19.12;100.00;98929.84;15363600;19;20026;-48
2023/08/17 23:53:22;;;;;;;584.20;19.02;;;;;;;19.02;100.00;98917.41;15354999;19;20024;-45
2023/08/17 23:58:50;;;;;;;1976.50;48.30;;;;;;;18.89;100.00;98912.72;15361260;19;20717;-46
